sensor_id;sensor_type;location;lat;lon;timestamp;P1;durP1;ratioP1;P2;durP2;ratioP2
17369;SDS011;8802;52.402;4.920;2024-02-26T00:00:00;7.90;;;7.05;;
17369;SDS011;8802;52.402;4.920;2024-02-26T00:02:29;8.25;;;7.55;;
17369;SDS011;8802;52.402;4.920;2024-02-26T00:04:57;7.65;;;6.95;;
17369;SDS011;8802;52.402;4.920;2024-02-26T00:07:23;8.23;;;7.13;;
17369;SDS011;8802;52.402;4.920;2024-02-26T00:09:50;7.72;;;6.85;;
17369;SDS011;8802;52.402;4.920;2024-02-26T00:12:17;7.80;;;7.00;;
17369;SDS011;8802;52.402;4.920;2024-02-26T00:14:44;7.75;;;6.97;;
17369;SDS011;8802;52.402;4.920;2024-02-26T00:17:12;7.93;;;7.20;;
17369;SDS011;8802;52.402;4.920;2024-02-26T00:19:41;7.95;;;7.15;;
17369;SDS011;8802;52.402;4.920;2024-02-26T00:22:08;8.25;;;7.28;;
17369;SDS011;8802;52.402;4.920;2024-02-26T00:24:35;7.68;;;6.97;;
17369;SDS011;8802;52.402;4.920;2024-02-26T00:27:02;8.32;;;7.53;;
17369;SDS011;8802;52.402;4.920;2024-02-26T00:29:28;7.75;;;6.82;;
17369;SDS011;8802;52.402;4.920;2024-02-26T00:31:55;8.10;;;7.32;;
17369;SDS011;8802;52.402;4.920;2024-02-26T00:34:22;8.05;;;7.25;;
17369;SDS011;8802;52.402;4.920;2024-02-26T00:36:50;7.15;;;6.50;;
17369;SDS011;8802;52.402;4.920;2024-02-26T00:39:17;8.13;;;7.40;;
17369;SDS011;8802;52.402;4.920;2024-02-26T00:41:44;8.05;;;7.18;;
17369;SDS011;8802;52.402;4.920;2024-02-26T00:44:11;8.55;;;7.60;;
17369;SDS011;8802;52.402;4.920;2024-02-26T00:46:37;8.07;;;7.10;;
17369;SDS011;8802;52.402;4.920;2024-02-26T00:49:04;9.13;;;7.70;;
17369;SDS011;8802;52.402;4.920;2024-02-26T00:51:31;7.53;;;6.78;;
17369;SDS011;8802;52.402;4.920;2024-02-26T00:53:59;7.95;;;7.22;;
17369;SDS011;8802;52.402;4.920;2024-02-26T00:56:26;9.68;;;7.00;;
17369;SDS011;8802;52.402;4.920;2024-02-26T00:58:53;7.18;;;6.53;;
17369;SDS011;8802;52.402;4.920;2024-02-26T01:01:20;7.70;;;7.00;;
17369;SDS011;8802;52.402;4.920;2024-02-26T01:03:47;7.45;;;6.75;;
17369;SDS011;8802;52.402;4.920;2024-02-26T01:06:13;6.88;;;6.18;;
17369;SDS011;8802;52.402;4.920;2024-02-26T01:08:40;6.22;;;5.70;;
17369;SDS011;8802;52.402;4.920;2024-02-26T01:11:08;5.97;;;5.47;;
17369;SDS011;8802;52.402;4.920;2024-02-26T01:13:35;7.28;;;6.28;;
17369;SDS011;8802;52.402;4.920;2024-02-26T01:16:02;6.57;;;5.95;;
17369;SDS011;8802;52.402;4.920;2024-02-26T01:18:30;5.75;;;5.15;;
17369;SDS011;8802;52.402;4.920;2024-02-26T01:20:56;6.78;;;6.20;;
17369;SDS011;8802;52.402;4.920;2024-02-26T01:23:23;7.63;;;6.50;;
17369;SDS011;8802;52.402;4.920;2024-02-26T01:25:50;6.93;;;6.32;;
17369;SDS011;8802;52.402;4.920;2024-02-26T01:28:18;7.22;;;6.53;;
17369;SDS011;8802;52.402;4.920;2024-02-26T01:30:45;7.32;;;6.45;;
17369;SDS011;8802;52.402;4.920;2024-02-26T01:33:12;7.13;;;6.43;;
17369;SDS011;8802;52.402;4.920;2024-02-26T01:35:39;6.55;;;6.00;;
17369;SDS011;8802;52.402;4.920;2024-02-26T01:38:05;7.40;;;6.68;;
17369;SDS011;8802;52.402;4.920;2024-02-26T01:40:32;8.25;;;7.45;;
17369;SDS011;8802;52.402;4.920;2024-02-26T01:42:59;7.57;;;6.88;;
17369;SDS011;8802;52.402;4.920;2024-02-26T01:45:27;7.90;;;7.20;;
17369;SDS011;8802;52.402;4.920;2024-02-26T01:47:54;8.32;;;7.45;;
17369;SDS011;8802;52.402;4.920;2024-02-26T01:50:22;7.53;;;6.82;;
17369;SDS011;8802;52.402;4.920;2024-02-26T01:52:50;9.20;;;7.38;;
17369;SDS011;8802;52.402;4.920;2024-02-26T01:55:18;9.18;;;8.38;;
17369;SDS011;8802;52.402;4.920;2024-02-26T01:57:47;8.77;;;7.88;;
17369;SDS011;8802;52.402;4.920;2024-02-26T02:00:16;8.43;;;7.57;;
17369;SDS011;8802;52.402;4.920;2024-02-26T02:02:46;9.85;;;8.85;;
17369;SDS011;8802;52.402;4.920;2024-02-26T02:05:14;8.77;;;7.85;;
17369;SDS011;8802;52.402;4.920;2024-02-26T02:07:43;10.23;;;9.20;;
17369;SDS011;8802;52.402;4.920;2024-02-26T02:10:10;10.25;;;9.25;;
17369;SDS011;8802;52.402;4.920;2024-02-26T02:12:37;9.88;;;8.98;;
17369;SDS011;8802;52.402;4.920;2024-02-26T02:15:05;10.43;;;9.50;;
17369;SDS011;8802;52.402;4.920;2024-02-26T02:17:33;9.45;;;8.55;;
17369;SDS011;8802;52.402;4.920;2024-02-26T02:20:01;11.02;;;10.00;;
17369;SDS011;8802;52.402;4.920;2024-02-26T02:22:30;11.00;;;9.95;;
17369;SDS011;8802;52.402;4.920;2024-02-26T02:24:58;10.65;;;9.68;;
17369;SDS011;8802;52.402;4.920;2024-02-26T02:27:26;11.38;;;10.18;;
17369;SDS011;8802;52.402;4.920;2024-02-26T02:29:54;11.35;;;10.15;;
17369;SDS011;8802;52.402;4.920;2024-02-26T02:32:21;10.18;;;9.18;;
17369;SDS011;8802;52.402;4.920;2024-02-26T02:34:49;12.20;;;10.98;;
17369;SDS011;8802;52.402;4.920;2024-02-26T02:37:16;11.85;;;10.65;;
17369;SDS011;8802;52.402;4.920;2024-02-26T02:39:44;12.82;;;10.27;;
17369;SDS011;8802;52.402;4.920;2024-02-26T02:42:11;11.88;;;10.55;;
17369;SDS011;8802;52.402;4.920;2024-02-26T02:44:38;11.65;;;10.45;;
17369;SDS011;8802;52.402;4.920;2024-02-26T02:47:05;12.50;;;10.98;;
17369;SDS011;8802;52.402;4.920;2024-02-26T02:49:32;11.40;;;10.10;;
17369;SDS011;8802;52.402;4.920;2024-02-26T02:51:58;13.32;;;11.10;;
17369;SDS011;8802;52.402;4.920;2024-02-26T02:54:26;10.90;;;9.80;;
17369;SDS011;8802;52.402;4.920;2024-02-26T02:56:54;12.68;;;11.40;;
17369;SDS011;8802;52.402;4.920;2024-02-26T02:59:21;12.13;;;10.93;;
17369;SDS011;8802;52.402;4.920;2024-02-26T03:01:47;12.80;;;11.50;;
17369;SDS011;8802;52.402;4.920;2024-02-26T03:04:14;11.50;;;10.30;;
17369;SDS011;8802;52.402;4.920;2024-02-26T03:06:41;11.13;;;9.98;;
17369;SDS011;8802;52.402;4.920;2024-02-26T03:09:08;12.30;;;10.70;;
17369;SDS011;8802;52.402;4.920;2024-02-26T03:11:35;12.30;;;10.98;;
17369;SDS011;8802;52.402;4.920;2024-02-26T03:14:03;12.85;;;11.55;;
17369;SDS011;8802;52.402;4.920;2024-02-26T03:16:30;11.68;;;10.50;;
17369;SDS011;8802;52.402;4.920;2024-02-26T03:18:57;13.25;;;11.40;;
17369;SDS011;8802;52.402;4.920;2024-02-26T03:21:24;13.82;;;12.43;;
17369;SDS011;8802;52.402;4.920;2024-02-26T03:23:51;12.73;;;10.93;;
17369;SDS011;8802;52.402;4.920;2024-02-26T03:26:18;12.45;;;10.80;;
17369;SDS011;8802;52.402;4.920;2024-02-26T03:28:46;12.80;;;11.50;;
17369;SDS011;8802;52.402;4.920;2024-02-26T03:31:14;12.18;;;10.88;;
17369;SDS011;8802;52.402;4.920;2024-02-26T03:33:41;12.90;;;11.57;;
17369;SDS011;8802;52.402;4.920;2024-02-26T03:36:08;13.10;;;11.70;;
17369;SDS011;8802;52.402;4.920;2024-02-26T03:38:35;14.93;;;11.98;;
17369;SDS011;8802;52.402;4.920;2024-02-26T03:41:03;12.70;;;10.90;;
17369;SDS011;8802;52.402;4.920;2024-02-26T03:43:29;13.98;;;12.32;;
17369;SDS011;8802;52.402;4.920;2024-02-26T03:45:56;12.82;;;11.05;;
17369;SDS011;8802;52.402;4.920;2024-02-26T03:48:25;12.63;;;11.32;;
17369;SDS011;8802;52.402;4.920;2024-02-26T03:50:52;13.55;;;12.15;;
17369;SDS011;8802;52.402;4.920;2024-02-26T03:53:18;14.07;;;12.57;;
17369;SDS011;8802;52.402;4.920;2024-02-26T03:55:45;13.63;;;12.18;;
17369;SDS011;8802;52.402;4.920;2024-02-26T03:58:12;14.57;;;13.13;;
17369;SDS011;8802;52.402;4.920;2024-02-26T04:00:39;13.43;;;12.02;;
17369;SDS011;8802;52.402;4.920;2024-02-26T04:03:06;13.80;;;11.73;;
17369;SDS011;8802;52.402;4.920;2024-02-26T04:05:34;14.77;;;12.23;;
17369;SDS011;8802;52.402;4.920;2024-02-26T04:08:01;14.23;;;12.05;;
17369;SDS011;8802;52.402;4.920;2024-02-26T04:10:29;14.55;;;12.98;;
17369;SDS011;8802;52.402;4.920;2024-02-26T04:12:55;15.00;;;13.43;;
17369;SDS011;8802;52.402;4.920;2024-02-26T04:15:22;15.32;;;13.48;;
17369;SDS011;8802;52.402;4.920;2024-02-26T04:17:49;15.95;;;13.63;;
17369;SDS011;8802;52.402;4.920;2024-02-26T04:20:16;16.58;;;13.73;;
17369;SDS011;8802;52.402;4.920;2024-02-26T04:22:44;15.52;;;13.65;;
17369;SDS011;8802;52.402;4.920;2024-02-26T04:25:11;14.27;;;12.82;;
17369;SDS011;8802;52.402;4.920;2024-02-26T04:27:38;16.10;;;14.40;;
17369;SDS011;8802;52.402;4.920;2024-02-26T04:30:05;17.05;;;14.63;;
17369;SDS011;8802;52.402;4.920;2024-02-26T04:32:33;17.27;;;14.60;;
17369;SDS011;8802;52.402;4.920;2024-02-26T04:35:00;16.05;;;14.35;;
17369;SDS011;8802;52.402;4.920;2024-02-26T04:37:27;17.58;;;14.57;;
17369;SDS011;8802;52.402;4.920;2024-02-26T04:39:57;16.83;;;14.95;;
17369;SDS011;8802;52.402;4.920;2024-02-26T04:42:24;17.63;;;15.18;;
17369;SDS011;8802;52.402;4.920;2024-02-26T04:44:51;17.80;;;15.80;;
17369;SDS011;8802;52.402;4.920;2024-02-26T04:47:18;18.90;;;16.27;;
17369;SDS011;8802;52.402;4.920;2024-02-26T04:49:47;16.90;;;15.10;;
17369;SDS011;8802;52.402;4.920;2024-02-26T04:52:14;17.48;;;15.68;;
17369;SDS011;8802;52.402;4.920;2024-02-26T04:54:41;16.38;;;14.52;;
17369;SDS011;8802;52.402;4.920;2024-02-26T04:57:09;17.70;;;14.52;;
17369;SDS011;8802;52.402;4.920;2024-02-26T04:59:36;17.67;;;15.77;;
17369;SDS011;8802;52.402;4.920;2024-02-26T05:02:03;18.00;;;16.10;;
17369;SDS011;8802;52.402;4.920;2024-02-26T05:04:30;16.88;;;15.02;;
17369;SDS011;8802;52.402;4.920;2024-02-26T05:06:57;16.58;;;14.77;;
17369;SDS011;8802;52.402;4.920;2024-02-26T05:09:23;18.05;;;16.15;;
17369;SDS011;8802;52.402;4.920;2024-02-26T05:11:50;18.27;;;16.27;;
17369;SDS011;8802;52.402;4.920;2024-02-26T05:14:19;17.55;;;15.65;;
17369;SDS011;8802;52.402;4.920;2024-02-26T05:16:46;17.30;;;15.30;;
17369;SDS011;8802;52.402;4.920;2024-02-26T05:19:13;16.58;;;14.32;;
17369;SDS011;8802;52.402;4.920;2024-02-26T05:21:40;16.95;;;15.20;;
17369;SDS011;8802;52.402;4.920;2024-02-26T05:24:09;17.40;;;15.55;;
17369;SDS011;8802;52.402;4.920;2024-02-26T05:26:36;17.27;;;15.20;;
17369;SDS011;8802;52.402;4.920;2024-02-26T05:29:02;17.23;;;15.38;;
17369;SDS011;8802;52.402;4.920;2024-02-26T05:31:31;15.50;;;13.85;;
17369;SDS011;8802;52.402;4.920;2024-02-26T05:33:57;16.25;;;14.55;;
17369;SDS011;8802;52.402;4.920;2024-02-26T05:36:24;15.45;;;13.82;;
17369;SDS011;8802;52.402;4.920;2024-02-26T05:38:53;16.73;;;14.95;;
17369;SDS011;8802;52.402;4.920;2024-02-26T05:41:20;16.42;;;14.60;;
17369;SDS011;8802;52.402;4.920;2024-02-26T05:43:50;15.95;;;14.27;;
17369;SDS011;8802;52.402;4.920;2024-02-26T05:46:17;16.38;;;14.68;;
17369;SDS011;8802;52.402;4.920;2024-02-26T05:48:46;15.98;;;14.32;;
17369;SDS011;8802;52.402;4.920;2024-02-26T05:51:15;16.92;;;14.95;;
17369;SDS011;8802;52.402;4.920;2024-02-26T05:53:41;14.38;;;12.88;;
17369;SDS011;8802;52.402;4.920;2024-02-26T05:56:08;14.52;;;13.02;;
17369;SDS011;8802;52.402;4.920;2024-02-26T05:58:35;14.70;;;13.20;;
17369;SDS011;8802;52.402;4.920;2024-02-26T06:01:03;14.35;;;12.95;;
17369;SDS011;8802;52.402;4.920;2024-02-26T06:03:30;13.90;;;12.50;;
17369;SDS011;8802;52.402;4.920;2024-02-26T06:05:58;13.23;;;11.30;;
17369;SDS011;8802;52.402;4.920;2024-02-26T06:08:25;12.15;;;10.95;;
17369;SDS011;8802;52.402;4.920;2024-02-26T06:10:52;13.13;;;11.73;;
17369;SDS011;8802;52.402;4.920;2024-02-26T06:13:19;13.15;;;11.73;;
17369;SDS011;8802;52.402;4.920;2024-02-26T06:15:46;11.50;;;10.32;;
17369;SDS011;8802;52.402;4.920;2024-02-26T06:18:13;11.15;;;10.05;;
17369;SDS011;8802;52.402;4.920;2024-02-26T06:20:41;10.95;;;9.85;;
17369;SDS011;8802;52.402;4.920;2024-02-26T06:23:09;11.27;;;10.18;;
17369;SDS011;8802;52.402;4.920;2024-02-26T06:25:36;10.90;;;9.68;;
17369;SDS011;8802;52.402;4.920;2024-02-26T06:28:03;11.82;;;10.18;;
17369;SDS011;8802;52.402;4.920;2024-02-26T06:30:30;11.82;;;9.82;;
17369;SDS011;8802;52.402;4.920;2024-02-26T06:32:57;12.25;;;9.82;;
17369;SDS011;8802;52.402;4.920;2024-02-26T06:35:24;10.98;;;9.43;;
17369;SDS011;8802;52.402;4.920;2024-02-26T06:37:50;10.18;;;9.10;;
17369;SDS011;8802;52.402;4.920;2024-02-26T06:40:19;9.85;;;8.80;;
17369;SDS011;8802;52.402;4.920;2024-02-26T06:42:46;9.32;;;8.40;;
17369;SDS011;8802;52.402;4.920;2024-02-26T06:45:15;7.43;;;6.70;;
17369;SDS011;8802;52.402;4.920;2024-02-26T06:47:42;9.73;;;7.13;;
17369;SDS011;8802;52.402;4.920;2024-02-26T06:50:11;8.93;;;7.55;;
17369;SDS011;8802;52.402;4.920;2024-02-26T06:52:38;9.52;;;7.13;;
17369;SDS011;8802;52.402;4.920;2024-02-26T06:55:05;9.18;;;7.68;;
17369;SDS011;8802;52.402;4.920;2024-02-26T06:57:34;10.40;;;7.40;;
17369;SDS011;8802;52.402;4.920;2024-02-26T07:00:01;8.35;;;7.43;;
17369;SDS011;8802;52.402;4.920;2024-02-26T07:02:29;10.32;;;7.28;;
17369;SDS011;8802;52.402;4.920;2024-02-26T07:04:56;8.10;;;6.40;;
17369;SDS011;8802;52.402;4.920;2024-02-26T07:07:23;7.35;;;6.60;;
17369;SDS011;8802;52.402;4.920;2024-02-26T07:09:50;7.28;;;6.57;;
17369;SDS011;8802;52.402;4.920;2024-02-26T07:12:17;7.32;;;5.70;;
17369;SDS011;8802;52.402;4.920;2024-02-26T07:14:46;6.18;;;5.22;;
17369;SDS011;8802;52.402;4.920;2024-02-26T07:17:12;7.90;;;7.13;;
17369;SDS011;8802;52.402;4.920;2024-02-26T07:19:41;7.68;;;6.65;;
17369;SDS011;8802;52.402;4.920;2024-02-26T07:22:08;11.05;;;9.85;;
17369;SDS011;8802;52.402;4.920;2024-02-26T07:24:35;7.43;;;5.80;;
17369;SDS011;8802;52.402;4.920;2024-02-26T07:27:02;6.40;;;5.80;;
17369;SDS011;8802;52.402;4.920;2024-02-26T07:29:29;7.47;;;5.97;;
17369;SDS011;8802;52.402;4.920;2024-02-26T07:31:57;5.80;;;5.22;;
17369;SDS011;8802;52.402;4.920;2024-02-26T07:34:24;5.82;;;5.10;;
17369;SDS011;8802;52.402;4.920;2024-02-26T07:36:54;5.75;;;5.07;;
17369;SDS011;8802;52.402;4.920;2024-02-26T07:39:21;5.53;;;5.03;;
17369;SDS011;8802;52.402;4.920;2024-02-26T07:41:48;5.72;;;4.55;;
17369;SDS011;8802;52.402;4.920;2024-02-26T07:44:17;6.82;;;6.20;;
17369;SDS011;8802;52.402;4.920;2024-02-26T07:46:44;5.35;;;4.93;;
17369;SDS011;8802;52.402;4.920;2024-02-26T07:49:13;6.32;;;5.80;;
17369;SDS011;8802;52.402;4.920;2024-02-26T07:51:39;7.35;;;4.72;;
17369;SDS011;8802;52.402;4.920;2024-02-26T07:54:07;5.18;;;4.68;;
17369;SDS011;8802;52.402;4.920;2024-02-26T07:56:33;7.22;;;4.50;;
17369;SDS011;8802;52.402;4.920;2024-02-26T07:59:00;6.13;;;4.60;;
17369;SDS011;8802;52.402;4.920;2024-02-26T08:01:27;4.30;;;3.90;;
17369;SDS011;8802;52.402;4.920;2024-02-26T08:03:54;4.63;;;4.15;;
17369;SDS011;8802;52.402;4.920;2024-02-26T08:06:23;5.82;;;4.32;;
17369;SDS011;8802;52.402;4.920;2024-02-26T08:08:50;4.47;;;4.10;;
17369;SDS011;8802;52.402;4.920;2024-02-26T08:11:17;4.85;;;4.22;;
17369;SDS011;8802;52.402;4.920;2024-02-26T08:13:44;4.57;;;4.18;;
17369;SDS011;8802;52.402;4.920;2024-02-26T08:16:11;3.70;;;3.30;;
17369;SDS011;8802;52.402;4.920;2024-02-26T08:18:38;6.38;;;3.92;;
17369;SDS011;8802;52.402;4.920;2024-02-26T08:21:05;4.25;;;3.90;;
17369;SDS011;8802;52.402;4.920;2024-02-26T08:23:33;5.25;;;4.38;;
17369;SDS011;8802;52.402;4.920;2024-02-26T08:26:00;5.10;;;4.15;;
17369;SDS011;8802;52.402;4.920;2024-02-26T08:28:29;5.53;;;4.25;;
17369;SDS011;8802;52.402;4.920;2024-02-26T08:30:56;5.95;;;4.47;;
17369;SDS011;8802;52.402;4.920;2024-02-26T08:33:23;4.38;;;3.97;;
17369;SDS011;8802;52.402;4.920;2024-02-26T08:35:50;4.45;;;3.75;;
17369;SDS011;8802;52.402;4.920;2024-02-26T08:38:17;4.13;;;3.83;;
17369;SDS011;8802;52.402;4.920;2024-02-26T08:40:45;4.00;;;3.67;;
17369;SDS011;8802;52.402;4.920;2024-02-26T08:43:12;4.65;;;4.25;;
17369;SDS011;8802;52.402;4.920;2024-02-26T08:45:38;4.18;;;3.78;;
17369;SDS011;8802;52.402;4.920;2024-02-26T08:48:06;4.65;;;3.78;;
17369;SDS011;8802;52.402;4.920;2024-02-26T08:50:33;4.22;;;3.83;;
17369;SDS011;8802;52.402;4.920;2024-02-26T08:53:00;4.72;;;4.32;;
17369;SDS011;8802;52.402;4.920;2024-02-26T08:55:28;4.43;;;3.67;;
17369;SDS011;8802;52.402;4.920;2024-02-26T08:57:56;3.40;;;3.15;;
17369;SDS011;8802;52.402;4.920;2024-02-26T09:00:23;3.83;;;3.40;;
17369;SDS011;8802;52.402;4.920;2024-02-26T09:02:50;4.85;;;3.45;;
17369;SDS011;8802;52.402;4.920;2024-02-26T09:05:17;4.13;;;3.72;;
17369;SDS011;8802;52.402;4.920;2024-02-26T09:07:44;5.05;;;3.95;;
17369;SDS011;8802;52.402;4.920;2024-02-26T09:10:11;3.60;;;3.30;;
17369;SDS011;8802;52.402;4.920;2024-02-26T09:12:38;3.25;;;2.95;;
17369;SDS011;8802;52.402;4.920;2024-02-26T09:15:07;4.00;;;3.38;;
17369;SDS011;8802;52.402;4.920;2024-02-26T09:17:34;4.22;;;3.83;;
17369;SDS011;8802;52.402;4.920;2024-02-26T09:20:01;4.30;;;3.83;;
17369;SDS011;8802;52.402;4.920;2024-02-26T09:22:28;4.40;;;3.75;;
17369;SDS011;8802;52.402;4.920;2024-02-26T09:24:55;3.97;;;3.67;;
17369;SDS011;8802;52.402;4.920;2024-02-26T09:27:22;5.82;;;3.80;;
17369;SDS011;8802;52.402;4.920;2024-02-26T09:29:49;4.25;;;3.78;;
17369;SDS011;8802;52.402;4.920;2024-02-26T09:32:17;4.50;;;3.88;;
17369;SDS011;8802;52.402;4.920;2024-02-26T09:34:44;4.80;;;3.60;;
17369;SDS011;8802;52.402;4.920;2024-02-26T09:37:11;4.03;;;3.10;;
17369;SDS011;8802;52.402;4.920;2024-02-26T09:39:38;3.78;;;3.47;;
17369;SDS011;8802;52.402;4.920;2024-02-26T09:42:05;4.10;;;3.65;;
17369;SDS011;8802;52.402;4.920;2024-02-26T09:44:35;6.10;;;3.97;;
17369;SDS011;8802;52.402;4.920;2024-02-26T09:47:06;5.25;;;3.75;;
17369;SDS011;8802;52.402;4.920;2024-02-26T09:49:36;3.70;;;3.38;;
17369;SDS011;8802;52.402;4.920;2024-02-26T09:52:04;4.45;;;3.95;;
17369;SDS011;8802;52.402;4.920;2024-02-26T09:54:32;4.10;;;3.47;;
17369;SDS011;8802;52.402;4.920;2024-02-26T09:57:02;3.70;;;3.40;;
17369;SDS011;8802;52.402;4.920;2024-02-26T09:59:29;3.63;;;3.33;;
17369;SDS011;8802;52.402;4.920;2024-02-26T10:02:03;5.25;;;3.75;;
17369;SDS011;8802;52.402;4.920;2024-02-26T10:04:30;4.38;;;3.80;;
17369;SDS011;8802;52.402;4.920;2024-02-26T10:06:59;3.88;;;3.38;;
17369;SDS011;8802;52.402;4.920;2024-02-26T10:09:28;3.83;;;3.53;;
17369;SDS011;8802;52.402;4.920;2024-02-26T10:11:57;5.88;;;3.65;;
17369;SDS011;8802;52.402;4.920;2024-02-26T10:14:24;3.70;;;3.40;;
17369;SDS011;8802;52.402;4.920;2024-02-26T10:16:51;3.65;;;3.35;;
17369;SDS011;8802;52.402;4.920;2024-02-26T10:19:24;4.60;;;3.55;;
17369;SDS011;8802;52.402;4.920;2024-02-26T10:21:53;3.90;;;3.50;;
17369;SDS011;8802;52.402;4.920;2024-02-26T10:24:24;3.50;;;3.03;;
17369;SDS011;8802;52.402;4.920;2024-02-26T10:26:51;4.93;;;3.50;;
17369;SDS011;8802;52.402;4.920;2024-02-26T10:29:18;3.60;;;3.30;;
17369;SDS011;8802;52.402;4.920;2024-02-26T10:31:46;6.40;;;3.97;;
17369;SDS011;8802;52.402;4.920;2024-02-26T10:34:14;4.28;;;3.08;;
17369;SDS011;8802;52.402;4.920;2024-02-26T10:36:41;3.33;;;3.03;;
17369;SDS011;8802;52.402;4.920;2024-02-26T10:39:09;3.63;;;3.30;;
17369;SDS011;8802;52.402;4.920;2024-02-26T10:41:39;3.13;;;2.70;;
17369;SDS011;8802;52.402;4.920;2024-02-26T10:44:08;3.85;;;2.95;;
17369;SDS011;8802;52.402;4.920;2024-02-26T10:46:35;3.13;;;2.50;;
17369;SDS011;8802;52.402;4.920;2024-02-26T10:49:03;2.92;;;2.65;;
17369;SDS011;8802;52.402;4.920;2024-02-26T10:51:31;4.10;;;2.50;;
17369;SDS011;8802;52.402;4.920;2024-02-26T10:54:04;2.90;;;2.50;;
17369;SDS011;8802;52.402;4.920;2024-02-26T10:56:33;3.42;;;2.50;;
17369;SDS011;8802;52.402;4.920;2024-02-26T10:59:04;4.32;;;2.30;;
17369;SDS011;8802;52.402;4.920;2024-02-26T11:01:35;2.80;;;2.60;;
17369;SDS011;8802;52.402;4.920;2024-02-26T11:04:03;3.08;;;2.60;;
17369;SDS011;8802;52.402;4.920;2024-02-26T11:06:31;2.35;;;1.88;;
17369;SDS011;8802;52.402;4.920;2024-02-26T11:09:00;2.33;;;2.10;;
17369;SDS011;8802;52.402;4.920;2024-02-26T11:11:27;3.05;;;2.28;;
17369;SDS011;8802;52.402;4.920;2024-02-26T11:13:55;3.03;;;2.28;;
17369;SDS011;8802;52.402;4.920;2024-02-26T11:16:25;3.50;;;2.13;;
17369;SDS011;8802;52.402;4.920;2024-02-26T11:18:53;2.30;;;1.98;;
17369;SDS011;8802;52.402;4.920;2024-02-26T11:21:21;2.30;;;1.80;;
17369;SDS011;8802;52.402;4.920;2024-02-26T11:23:52;2.42;;;1.90;;
17369;SDS011;8802;52.402;4.920;2024-02-26T11:26:19;2.03;;;1.85;;
17369;SDS011;8802;52.402;4.920;2024-02-26T11:28:48;3.85;;;2.08;;
17369;SDS011;8802;52.402;4.920;2024-02-26T11:31:16;2.65;;;2.13;;
17369;SDS011;8802;52.402;4.920;2024-02-26T11:33:52;2.45;;;2.08;;
17369;SDS011;8802;52.402;4.920;2024-02-26T11:36:20;2.40;;;2.10;;
17369;SDS011;8802;52.402;4.920;2024-02-26T11:38:47;2.20;;;2.00;;
17369;SDS011;8802;52.402;4.920;2024-02-26T11:41:16;2.67;;;2.40;;
17369;SDS011;8802;52.402;4.920;2024-02-26T11:43:50;2.65;;;2.10;;
17369;SDS011;8802;52.402;4.920;2024-02-26T11:46:28;2.88;;;2.38;;
17369;SDS011;8802;52.402;4.920;2024-02-26T11:48:58;3.50;;;2.30;;
17369;SDS011;8802;52.402;4.920;2024-02-26T11:51:26;3.47;;;2.13;;
17369;SDS011;8802;52.402;4.920;2024-02-26T11:53:54;2.95;;;1.90;;
17369;SDS011;8802;52.402;4.920;2024-02-26T11:56:24;3.88;;;2.58;;
17369;SDS011;8802;52.402;4.920;2024-02-26T11:59:03;3.38;;;2.58;;
17369;SDS011;8802;52.402;4.920;2024-02-26T12:01:41;2.80;;;2.33;;
17369;SDS011;8802;52.402;4.920;2024-02-26T12:04:17;3.05;;;2.33;;
17369;SDS011;8802;52.402;4.920;2024-02-26T12:06:46;2.92;;;2.25;;
17369;SDS011;8802;52.402;4.920;2024-02-26T12:12:01;2.97;;;2.17;;
17369;SDS011;8802;52.402;4.920;2024-02-26T12:14:29;3.08;;;2.13;;
17369;SDS011;8802;52.402;4.920;2024-02-26T12:16:56;3.92;;;2.30;;
17369;SDS011;8802;52.402;4.920;2024-02-26T12:19:24;4.95;;;2.17;;
17369;SDS011;8802;52.402;4.920;2024-02-26T12:21:52;3.03;;;2.47;;
17369;SDS011;8802;52.402;4.920;2024-02-26T12:24:20;3.35;;;2.40;;
17369;SDS011;8802;52.402;4.920;2024-02-26T12:26:47;3.10;;;2.17;;
17369;SDS011;8802;52.402;4.920;2024-02-26T12:29:14;3.25;;;1.88;;
17369;SDS011;8802;52.402;4.920;2024-02-26T12:31:41;3.72;;;2.00;;
17369;SDS011;8802;52.402;4.920;2024-02-26T12:34:08;4.00;;;2.30;;
17369;SDS011;8802;52.402;4.920;2024-02-26T12:36:37;2.78;;;2.28;;
17369;SDS011;8802;52.402;4.920;2024-02-26T12:39:05;3.40;;;2.05;;
17369;SDS011;8802;52.402;4.920;2024-02-26T12:41:34;3.90;;;1.80;;
17369;SDS011;8802;52.402;4.920;2024-02-26T12:44:01;2.40;;;1.90;;
17369;SDS011;8802;52.402;4.920;2024-02-26T12:46:28;3.83;;;2.17;;
17369;SDS011;8802;52.402;4.920;2024-02-26T12:48:56;3.58;;;2.05;;
17369;SDS011;8802;52.402;4.920;2024-02-26T12:51:25;2.30;;;1.52;;
17369;SDS011;8802;52.402;4.920;2024-02-26T12:53:54;5.13;;;2.78;;
17369;SDS011;8802;52.402;4.920;2024-02-26T12:56:22;4.63;;;2.05;;
17369;SDS011;8802;52.402;4.920;2024-02-26T12:58:50;3.65;;;2.10;;
17369;SDS011;8802;52.402;4.920;2024-02-26T13:01:18;4.18;;;2.00;;
17369;SDS011;8802;52.402;4.920;2024-02-26T13:03:49;2.25;;;1.75;;
17369;SDS011;8802;52.402;4.920;2024-02-26T13:06:17;2.17;;;1.52;;
17369;SDS011;8802;52.402;4.920;2024-02-26T13:08:44;2.53;;;1.63;;
17369;SDS011;8802;52.402;4.920;2024-02-26T13:11:13;4.50;;;1.60;;
17369;SDS011;8802;52.402;4.920;2024-02-26T13:13:41;2.63;;;1.67;;
17369;SDS011;8802;52.402;4.920;2024-02-26T13:16:09;2.30;;;1.48;;
17369;SDS011;8802;52.402;4.920;2024-02-26T13:18:39;4.18;;;1.83;;
17369;SDS011;8802;52.402;4.920;2024-02-26T13:21:11;3.30;;;1.70;;
17369;SDS011;8802;52.402;4.920;2024-02-26T13:23:39;2.22;;;1.58;;
17369;SDS011;8802;52.402;4.920;2024-02-26T13:26:06;2.20;;;2.00;;
17369;SDS011;8802;52.402;4.920;2024-02-26T13:28:35;3.40;;;2.13;;
17369;SDS011;8802;52.402;4.920;2024-02-26T13:31:02;3.70;;;2.10;;
17369;SDS011;8802;52.402;4.920;2024-02-26T13:33:31;3.97;;;2.60;;
17369;SDS011;8802;52.402;4.920;2024-02-26T13:35:58;6.85;;;2.25;;
17369;SDS011;8802;52.402;4.920;2024-02-26T13:38:26;3.95;;;2.33;;
17369;SDS011;8802;52.402;4.920;2024-02-26T13:40:53;4.47;;;2.60;;
17369;SDS011;8802;52.402;4.920;2024-02-26T13:43:20;3.08;;;2.30;;
17369;SDS011;8802;52.402;4.920;2024-02-26T13:45:49;3.05;;;2.72;;
17369;SDS011;8802;52.402;4.920;2024-02-26T13:48:16;6.65;;;3.38;;
17369;SDS011;8802;52.402;4.920;2024-02-26T13:50:43;3.80;;;2.95;;
17369;SDS011;8802;52.402;4.920;2024-02-26T13:53:10;3.63;;;3.22;;
17369;SDS011;8802;52.402;4.920;2024-02-26T13:55:38;4.35;;;3.10;;
17369;SDS011;8802;52.402;4.920;2024-02-26T13:58:07;3.88;;;2.97;;
17369;SDS011;8802;52.402;4.920;2024-02-26T14:00:37;5.10;;;3.05;;
17369;SDS011;8802;52.402;4.920;2024-02-26T14:03:05;4.80;;;2.90;;
17369;SDS011;8802;52.402;4.920;2024-02-26T14:05:32;3.40;;;2.92;;
17369;SDS011;8802;52.402;4.920;2024-02-26T14:07:59;5.25;;;2.70;;
17369;SDS011;8802;52.402;4.920;2024-02-26T14:10:26;3.85;;;3.00;;
17369;SDS011;8802;52.402;4.920;2024-02-26T14:12:53;5.93;;;3.80;;
17369;SDS011;8802;52.402;4.920;2024-02-26T14:15:20;4.40;;;3.08;;
17369;SDS011;8802;52.402;4.920;2024-02-26T14:17:47;3.75;;;3.13;;
17369;SDS011;8802;52.402;4.920;2024-02-26T14:20:19;5.82;;;3.20;;
17369;SDS011;8802;52.402;4.920;2024-02-26T14:22:46;3.35;;;3.05;;
17369;SDS011;8802;52.402;4.920;2024-02-26T14:25:14;4.15;;;2.72;;
17369;SDS011;8802;52.402;4.920;2024-02-26T14:27:41;3.80;;;3.15;;
17369;SDS011;8802;52.402;4.920;2024-02-26T14:30:08;4.10;;;3.17;;
17369;SDS011;8802;52.402;4.920;2024-02-26T14:32:35;4.18;;;3.05;;
17369;SDS011;8802;52.402;4.920;2024-02-26T14:35:03;6.30;;;3.17;;
17369;SDS011;8802;52.402;4.920;2024-02-26T14:37:32;5.15;;;3.10;;
17369;SDS011;8802;52.402;4.920;2024-02-26T14:39:59;5.90;;;3.30;;
17369;SDS011;8802;52.402;4.920;2024-02-26T14:42:27;4.07;;;3.05;;
17369;SDS011;8802;52.402;4.920;2024-02-26T14:44:54;4.30;;;3.08;;
17369;SDS011;8802;52.402;4.920;2024-02-26T14:47:21;7.07;;;3.88;;
17369;SDS011;8802;52.402;4.920;2024-02-26T14:49:48;5.00;;;3.58;;
17369;SDS011;8802;52.402;4.920;2024-02-26T14:52:16;4.28;;;3.20;;
17369;SDS011;8802;52.402;4.920;2024-02-26T14:54:45;5.35;;;3.30;;
17369;SDS011;8802;52.402;4.920;2024-02-26T14:57:12;7.95;;;3.78;;